Time;durP1;ratioP1;P1;durP2;ratioP2;P2;SDS_P1;SDS_P2;PMS_P1;PMS_P2;Temp;Humidity;BMP_temperature;BMP_pressure;BME280_temperature;BME280_humidity;BME280_pressure;Samples;Min_cycle;Max_cycle;Signal;HPM_P1;HPM_P2
2023/06/08 00:01:38;;;;;;;;;;;21.10;53.60;;;;;;5074196;28;19920;-69
2023/06/08 00:04:05;;;;;;;;;;;21.00;53.40;;;;;;5092080;28;19928;-70
2023/06/08 00:06:33;;;;;;;;;;;21.00;53.50;;;;;;5074109;28;19943;-69
2023/06/08 00:09:01;;;;;;;;;;;21.00;53.50;;;;;;5074319;28;19920;-70
2023/06/08 00:11:27;;;;;;;;;;;21.00;53.50;;;;;;5074096;28;20375;-70
2023/06/08 00:13:52;;;;;;;;;;;21.00;53.50;;;;;;5074204;28;20023;-70
2023/06/08 00:16:18;;;;;;;;;;;21.00;53.50;;;;;;5107689;28;19964;-69
2023/06/08 00:18:44;;;;;;;;;;;21.00;53.50;;;;;;5092023;28;19996;-70
2023/06/08 00:21:12;;;;;;;;;;;21.00;53.50;;;;;;5091983;28;19981;-70
2023/06/08 00:23:38;;;;;;;;;;;21.00;53.50;;;;;;5070179;28;19924;-69
2023/06/08 00:26:04;;;;;;;;;;;20.90;53.50;;;;;;5104225;28;19974;-69
2023/06/08 00:28:29;;;;;;;;;;;21.00;53.50;;;;;;5104515;28;19982;-69
2023/06/08 00:30:55;;;;;;;;;;;20.90;53.50;;;;;;5073021;28;19928;-69
2023/06/08 00:33:20;;;;;;;;;;;20.90;53.50;;;;;;5108094;28;20363;-70
2023/06/08 00:35:46;;;;;;;;;;;20.90;53.40;;;;;;5107927;28;19924;-70
2023/06/08 00:38:11;;;;;;;;;;;20.90;53.50;;;;;;5073257;28;20027;-70
2023/06/08 00:40:37;;;;;;;;;;;20.90;53.50;;;;;;5073691;28;19924;-70
2023/06/08 00:43:02;;;;;;;;;;;20.90;53.50;;;;;;5073758;28;19932;-70
2023/06/08 00:45:28;;;;;;;;;;;20.90;53.40;;;;;;5074142;28;20287;-70
2023/06/08 00:47:53;;;;;;;;;;;20.90;53.50;;;;;;5073913;28;19928;-70
2023/06/08 00:50:20;;;;;;;;;;;20.90;53.50;;;;;;5073743;28;20412;-69
2023/06/08 00:52:46;;;;;;;;;;;20.80;53.40;;;;;;5074004;28;19927;-69
2023/06/08 00:55:12;;;;;;;;;;;20.80;53.50;;;;;;5073935;28;20347;-70
2023/06/08 00:57:38;;;;;;;;;;;20.80;53.40;;;;;;5073553;28;19924;-70
2023/06/08 01:00:05;;;;;;;;;;;20.80;53.50;;;;;;5073497;28;19928;-70
2023/06/08 01:02:31;;;;;;;;;;;20.80;53.60;;;;;;5073429;28;19920;-69
2023/06/08 01:04:56;;;;;;;;;;;20.80;53.50;;;;;;5074862;28;19985;-70
2023/06/08 01:07:34;;;;;;;;;;;20.80;53.50;;;;;;5073497;28;19952;-70
2023/06/08 01:13:15;;;;;;;;;;;20.80;54.20;;;;;;5110217;27;19912;-69
2023/06/08 01:15:44;;;;;;;;;;;20.70;53.40;;;;;;5091744;28;19926;-70
2023/06/08 01:18:11;;;;;;;;;;;20.70;53.40;;;;;;5110180;28;20264;-70
2023/06/08 01:20:42;;;;;;;;;;;20.70;53.40;;;;;;5091789;28;19928;-70
2023/06/08 01:23:20;;;;;;;;;;;20.70;53.40;;;;;;5108815;28;19970;-70
2023/06/08 01:25:48;;;;;;;;;;;20.70;53.40;;;;;;5091684;28;19926;-70
2023/06/08 01:28:13;;;;;;;;;;;20.70;53.40;;;;;;5108798;28;19927;-70
2023/06/08 01:30:41;;;;;;;;;;;20.70;53.40;;;;;;5091561;28;19920;-70
2023/06/08 01:33:07;;;;;;;;;;;20.70;53.30;;;;;;5091973;28;20002;-70
2023/06/08 01:35:32;;;;;;;;;;;20.70;53.40;;;;;;5109720;28;20019;-69
2023/06/08 01:38:01;;;;;;;;;;;20.70;53.40;;;;;;5091629;28;20010;-70
2023/06/08 01:40:29;;;;;;;;;;;20.70;53.40;;;;;;5109598;28;20268;-70
2023/06/08 01:42:55;;;;;;;;;;;20.70;53.40;;;;;;5091426;28;19920;-70
2023/06/08 01:45:22;;;;;;;;;;;20.70;53.40;;;;;;5091420;28;19964;-70
2023/06/08 01:47:50;;;;;;;;;;;20.70;53.40;;;;;;5108305;28;19924;-70
2023/06/08 01:50:18;;;;;;;;;;;20.60;53.30;;;;;;5109589;28;20391;-69
2023/06/08 01:52:44;;;;;;;;;;;20.70;53.40;;;;;;5091200;28;19924;-70
2023/06/08 01:55:24;;;;;;;;;;;20.60;53.40;;;;;;5091137;28;20268;-69
2023/06/08 01:57:50;;;;;;;;;;;20.60;53.30;;;;;;5091614;28;20286;-70
2023/06/08 02:00:17;;;;;;;;;;;20.60;53.40;;;;;;5109455;28;19924;-70
2023/06/08 02:02:43;;;;;;;;;;;20.60;53.40;;;;;;5091152;28;20405;-70
2023/06/08 02:05:10;;;;;;;;;;;20.60;53.40;;;;;;5091427;28;19959;-70
2023/06/08 02:07:36;;;;;;;;;;;20.60;53.40;;;;;;5090930;28;19946;-70
2023/06/08 02:10:03;;;;;;;;;;;20.60;53.30;;;;;;5091275;28;20351;-70
2023/06/08 02:12:28;;;;;;;;;;;20.60;53.30;;;;;;5070123;28;19968;-70
2023/06/08 02:14:54;;;;;;;;;;;20.50;53.30;;;;;;5067171;28;19971;-70
2023/06/08 02:17:27;;;;;;;;;;;20.50;53.20;;;;;;5068438;28;19927;-70
2023/06/08 02:19:53;;;;;;;;;;;20.50;53.30;;;;;;5067436;28;19920;-70
2023/06/08 02:22:18;;;;;;;;;;;20.50;53.30;;;;;;5065647;28;20319;-70
2023/06/08 02:24:44;;;;;;;;;;;20.50;53.30;;;;;;5054105;28;19920;-70
2023/06/08 02:27:09;;;;;;;;;;;20.50;53.30;;;;;;5055188;28;19927;-70
2023/06/08 02:29:35;;;;;;;;;;;20.50;53.30;;;;;;5053743;28;19925;-70
2023/06/08 02:32:01;;;;;;;;;;;20.50;53.30;;;;;;5055355;28;19929;-70
2023/06/08 02:34:27;;;;;;;;;;;20.50;53.30;;;;;;5054002;28;19944;-70
2023/06/08 02:36:52;;;;;;;;;;;20.50;53.30;;;;;;5053539;28;20397;-70
2023/06/08 02:39:18;;;;;;;;;;;20.50;53.30;;;;;;5053532;28;19921;-70
2023/06/08 02:41:43;;;;;;;;;;;20.50;53.30;;;;;;5053401;28;19921;-70
2023/06/08 02:44:09;;;;;;;;;;;20.50;53.30;;;;;;5053824;28;20273;-70
2023/06/08 02:46:36;;;;;;;;;;;20.40;53.20;;;;;;5054757;28;19976;-70
2023/06/08 02:49:02;;;;;;;;;;;20.50;53.30;;;;;;5054627;28;20395;-70
2023/06/08 02:51:27;;;;;;;;;;;20.50;53.30;;;;;;5054556;28;20030;-70
2023/06/08 02:53:53;;;;;;;;;;;20.40;53.30;;;;;;5054421;28;19967;-69
2023/06/08 02:56:18;;;;;;;;;;;20.40;53.30;;;;;;5053572;28;19928;-70
2023/06/08 02:58:46;;;;;;;;;;;20.50;53.30;;;;;;5053366;28;19921;-70
2023/06/08 03:01:14;;;;;;;;;;;20.40;53.30;;;;;;5053197;28;19928;-70
2023/06/08 03:03:41;;;;;;;;;;;20.40;53.30;;;;;;5053319;28;19920;-70
2023/06/08 03:06:07;;;;;;;;;;;20.40;53.30;;;;;;5053572;28;19987;-70
2023/06/08 03:08:32;;;;;;;;;;;20.40;53.30;;;;;;5054132;28;19972;-70
2023/06/08 03:10:58;;;;;;;;;;;20.40;53.30;;;;;;5062640;28;19925;-70
2023/06/08 03:13:23;;;;;;;;;;;20.40;53.30;;;;;;5076159;28;19927;-70
2023/06/08 03:15:52;;;;;;;;;;;20.40;53.20;;;;;;5076025;28;19970;-70
2023/06/08 03:18:18;;;;;;;;;;;20.40;53.20;;;;;;5076142;28;20436;-70
2023/06/08 03:20:47;;;;;;;;;;;20.40;53.30;;;;;;5093307;28;19920;-70
2023/06/08 03:23:13;;;;;;;;;;;20.40;53.30;;;;;;5076005;28;19920;-70
2023/06/08 03:25:38;;;;;;;;;;;20.30;53.20;;;;;;5076342;28;19927;-70
2023/06/08 03:28:04;;;;;;;;;;;20.30;53.20;;;;;;5092916;28;19927;-70
2023/06/08 03:30:30;;;;;;;;;;;20.30;53.20;;;;;;5092951;28;19924;-70
2023/06/08 03:32:59;;;;;;;;;;;20.30;53.30;;;;;;5076028;28;19920;-70
2023/06/08 03:35:24;;;;;;;;;;;20.30;53.30;;;;;;5074714;28;19960;-70
2023/06/08 03:37:50;;;;;;;;;;;20.30;53.30;;;;;;5092892;28;20364;-70
2023/06/08 03:40:16;;;;;;;;;;;20.30;53.30;;;;;;5093846;28;20008;-70
2023/06/08 03:42:41;;;;;;;;;;;20.30;53.30;;;;;;5075999;28;20283;-71
2023/06/08 03:45:07;;;;;;;;;;;20.30;53.20;;;;;;5092513;28;19931;-70
2023/06/08 03:47:32;;;;;;;;;;;20.30;53.20;;;;;;5075848;28;19987;-70
2023/06/08 03:49:58;;;;;;;;;;;20.20;53.90;;;;;;5075686;28;19924;-70
2023/06/08 03:52:23;;;;;;;;;;;20.20;53.20;;;;;;5094141;28;19924;-70
2023/06/08 03:54:49;;;;;;;;;;;20.20;53.10;;;;;;5093471;28;19920;-70
2023/06/08 03:57:15;;;;;;;;;;;20.30;53.20;;;;;;5093564;28;19920;-70
2023/06/08 03:59:41;;;;;;;;;;;20.20;53.20;;;;;;5075436;28;20391;-70
2023/06/08 04:02:06;;;;;;;;;;;20.20;53.20;;;;;;5075319;28;20007;-70
2023/06/08 04:04:34;;;;;;;;;;;20.20;53.20;;;;;;5075204;28;19978;-70
2023/06/08 04:07:00;;;;;;;;;;;20.20;53.20;;;;;;5075565;28;20373;-70
2023/06/08 04:09:26;;;;;;;;;;;20.20;53.30;;;;;;5075131;28;19960;-70
2023/06/08 04:11:52;;;;;;;;;;;20.20;53.30;;;;;;5074664;28;19931;-70
2023/06/08 04:14:17;;;;;;;;;;;20.20;53.30;;;;;;5093206;28;20007;-70
2023/06/08 04:16:42;;;;;;;;;;;20.20;53.30;;;;;;5075235;28;19962;-70
2023/06/08 04:19:09;;;;;;;;;;;20.20;53.30;;;;;;5074991;28;19978;-70
2023/06/08 04:21:35;;;;;;;;;;;20.20;53.20;;;;;;5074852;28;20004;-70
2023/06/08 04:24:01;;;;;;;;;;;20.20;53.20;;;;;;5092990;28;20015;-70
2023/06/08 04:26:28;;;;;;;;;;;20.20;53.20;;;;;;5075125;28;19928;-70
2023/06/08 04:28:54;;;;;;;;;;;20.10;53.20;;;;;;5075365;28;19920;-70
2023/06/08 04:31:20;;;;;;;;;;;20.20;53.30;;;;;;5074881;28;19931;-70
2023/06/08 04:33:45;;;;;;;;;;;20.10;53.20;;;;;;5074783;28;19926;-70
2023/06/08 04:36:11;;;;;;;;;;;20.10;53.30;;;;;;5074929;28;19920;-70
2023/06/08 04:38:37;;;;;;;;;;;20.10;53.20;;;;;;5074961;28;19924;-70
2023/06/08 04:41:02;;;;;;;;;;;20.10;53.30;;;;;;5074565;28;19963;-70
2023/06/08 04:43:31;;;;;;;;;;;20.10;53.30;;;;;;5092758;28;19920;-70
2023/06/08 04:45:59;;;;;;;;;;;20.10;53.40;;;;;;5092631;28;19999;-70
2023/06/08 04:48:26;;;;;;;;;;;20.10;53.30;;;;;;5074855;28;20298;-70
2023/06/08 04:50:52;;;;;;;;;;;20.10;53.40;;;;;;5074521;28;19981;-70
2023/06/08 04:53:17;;;;;;;;;;;20.10;53.30;;;;;;5092681;28;19924;-69
2023/06/08 04:55:45;;;;;;;;;;;20.10;53.40;;;;;;5092542;28;20031;-70
2023/06/08 04:58:11;;;;;;;;;;;20.10;53.30;;;;;;5074667;28;19927;-70
2023/06/08 05:00:36;;;;;;;;;;;20.10;53.30;;;;;;5092686;28;19955;-70
2023/06/08 05:03:02;;;;;;;;;;;20.10;53.30;;;;;;5074704;28;19971;-70
2023/06/08 05:05:27;;;;;;;;;;;20.10;53.30;;;;;;5092581;28;19920;-70
2023/06/08 05:07:53;;;;;;;;;;;20.00;53.20;;;;;;5074596;28;19920;-70
2023/06/08 05:10:19;;;;;;;;;;;20.00;53.20;;;;;;5074488;28;19975;-70
2023/06/08 05:12:45;;;;;;;;;;;20.10;53.30;;;;;;5073981;28;19924;-70
2023/06/08 05:15:10;;;;;;;;;;;20.00;53.20;;;;;;5092595;28;20493;-70
2023/06/08 05:17:36;;;;;;;;;;;20.00;53.30;;;;;;5091371;28;19920;-70
2023/06/08 05:20:01;;;;;;;;;;;20.10;53.30;;;;;;5092329;28;20151;-70
2023/06/08 05:22:28;;;;;;;;;;;20.00;53.30;;;;;;5074389;28;19931;-70
2023/06/08 05:24:53;;;;;;;;;;;20.00;54.10;;;;;;5092189;28;19920;-69
2023/06/08 05:27:19;;;;;;;;;;;20.00;53.30;;;;;;5090980;28;19927;-70
2023/06/08 05:29:44;;;;;;;;;;;20.00;53.30;;;;;;5090046;28;20205;-71
2023/06/08 05:32:10;;;;;;;;;;;20.00;53.30;;;;;;5092131;28;19967;-63
2023/06/08 05:34:35;;;;;;;;;;;20.00;53.30;;;;;;5073293;28;20365;-76
2023/06/08 05:37:01;;;;;;;;;;;20.10;53.30;;;;;;5072211;28;19920;-74
2023/06/08 05:39:26;;;;;;;;;;;20.00;53.30;;;;;;5072509;28;20027;-73
2023/06/08 05:41:52;;;;;;;;;;;20.10;53.30;;;;;;5072630;28;20014;-74
2023/06/08 05:44:17;;;;;;;;;;;20.10;53.30;;;;;;5073204;28;19928;-73
2023/06/08 05:46:43;;;;;;;;;;;20.10;53.40;;;;;;5072969;28;19970;-74
2023/06/08 05:49:08;;;;;;;;;;;20.10;53.40;;;;;;5072946;28;20455;-73
2023/06/08 05:51:35;;;;;;;;;;;20.10;53.40;;;;;;5071361;28;19932;-72
2023/06/08 05:54:00;;;;;;;;;;;20.10;53.40;;;;;;5062514;28;19985;-73
2023/06/08 05:56:27;;;;;;;;;;;20.10;53.40;;;;;;5071367;28;20395;-73
2023/06/08 05:58:52;;;;;;;;;;;20.10;53.40;;;;;;5090277;28;20366;-72
2023/06/08 06:01:19;;;;;;;;;;;20.10;53.30;;;;;;5073526;28;19963;-72
2023/06/08 06:03:45;;;;;;;;;;;20.10;53.30;;;;;;5068758;28;20375;-71
2023/06/08 06:06:11;;;;;;;;;;;20.10;53.30;;;;;;5068737;28;19920;-71
2023/06/08 06:08:36;;;;;;;;;;;20.10;53.30;;;;;;5071930;28;20118;-73
2023/06/08 06:11:02;;;;;;;;;;;20.10;53.20;;;;;;5070742;28;19924;-72
2023/06/08 06:13:27;;;;;;;;;;;20.10;53.20;;;;;;5064239;28;20543;-71
2023/06/08 06:15:53;;;;;;;;;;;20.10;53.20;;;;;;5067392;28;19928;-72
2023/06/08 06:18:18;;;;;;;;;;;20.10;53.20;;;;;;5069948;28;20080;-72
2023/06/08 06:20:44;;;;;;;;;;;20.10;53.20;;;;;;5089976;28;19927;-72
2023/06/08 06:23:09;;;;;;;;;;;20.10;53.20;;;;;;5067836;28;20321;-66
2023/06/08 06:25:35;;;;;;;;;;;20.10;53.90;;;;;;5060734;28;19920;-72
2023/06/08 06:28:01;;;;;;;;;;;20.10;53.20;;;;;;5064336;28;19923;-72
2023/06/08 06:30:27;;;;;;;;;;;20.10;53.20;;;;;;5068275;28;19928;-72
2023/06/08 06:32:52;;;;;;;;;;;20.10;53.20;;;;;;5079476;28;19959;-71
2023/06/08 06:35:18;;;;;;;;;;;20.10;53.20;;;;;;5061918;28;19968;-71
2023/06/08 06:37:44;;;;;;;;;;;20.10;53.30;;;;;;5056273;28;19974;-72
2023/06/08 06:40:09;;;;;;;;;;;20.10;53.30;;;;;;5057034;28;19920;-71
2023/06/08 06:42:37;;;;;;;;;;;20.10;53.30;;;;;;5057666;28;20020;-71
2023/06/08 06:45:03;;;;;;;;;;;20.10;53.30;;;;;;5075396;28;20444;-70
2023/06/08 06:47:28;;;;;;;;;;;20.10;53.50;;;;;;5068749;28;19994;-70
2023/06/08 06:49:53;;;;;;;;;;;20.10;53.80;;;;;;5071269;28;20272;-70
2023/06/08 06:52:19;;;;;;;;;;;20.10;53.70;;;;;;5074157;28;19931;-69
2023/06/08 06:54:44;;;;;;;;;;;20.20;53.80;;;;;;5072007;28;20012;-70
2023/06/08 06:57:10;;;;;;;;;;;20.20;53.90;;;;;;5071121;28;20269;-70
2023/06/08 06:59:36;;;;;;;;;;;20.20;53.90;;;;;;5054131;28;19924;-70
2023/06/08 07:02:02;;;;;;;;;;;20.20;53.80;;;;;;5051846;28;19926;-70
2023/06/08 07:04:28;;;;;;;;;;;20.20;53.70;;;;;;5057317;28;19925;-70
2023/06/08 07:06:54;;;;;;;;;;;20.10;53.70;;;;;;5057174;28;19921;-70
2023/06/08 07:09:23;;;;;;;;;;;20.20;53.80;;;;;;5055568;28;19924;-69
2023/06/08 07:11:49;;;;;;;;;;;20.10;53.80;;;;;;5074302;28;19924;-70
2023/06/08 07:14:15;;;;;;;;;;;20.20;53.80;;;;;;5053423;28;19935;-70
2023/06/08 07:16:41;;;;;;;;;;;20.20;53.80;;;;;;5060318;28;20376;-70
2023/06/08 07:19:06;;;;;;;;;;;20.20;53.80;;;;;;5055032;28;19924;-68
2023/06/08 07:21:32;;;;;;;;;;;20.20;53.80;;;;;;5052802;28;19920;-70
2023/06/08 07:23:58;;;;;;;;;;;20.20;53.90;;;;;;5058606;28;19924;-70
2023/06/08 07:26:23;;;;;;;;;;;20.20;54.00;;;;;;5054755;28;19946;-70
2023/06/08 07:28:53;;;;;;;;;;;20.20;53.90;;;;;;5050458;28;19931;-65
2023/06/08 07:31:19;;;;;;;;;;;20.20;54.10;;;;;;5069195;28;19928;-70
2023/06/08 07:33:44;;;;;;;;;;;20.20;54.40;;;;;;5045078;28;20274;-71
2023/06/08 07:36:10;;;;;;;;;;;20.20;54.40;;;;;;5056207;28;19935;-74
2023/06/08 07:38:36;;;;;;;;;;;20.30;54.40;;;;;;5059162;28;19958;-73
2023/06/08 07:41:01;;;;;;;;;;;20.30;54.50;;;;;;5045881;28;20121;-73
2023/06/08 07:43:27;;;;;;;;;;;20.30;54.50;;;;;;5063676;28;20582;-74
2023/06/08 07:45:52;;;;;;;;;;;20.30;54.50;;;;;;5067957;28;20832;-71
2023/06/08 07:48:18;;;;;;;;;;;20.30;54.40;;;;;;5043795;28;20041;-72
2023/06/08 07:50:43;;;;;;;;;;;20.30;54.50;;;;;;5045954;28;19924;-65
2023/06/08 07:53:11;;;;;;;;;;;20.30;54.60;;;;;;5049221;28;19928;-75
2023/06/08 07:55:36;;;;;;;;;;;20.40;54.90;;;;;;5048296;28;19931;-74
2023/06/08 07:58:02;;;;;;;;;;;20.40;54.80;;;;;;5064609;28;19929;-72
2023/06/08 08:00:27;;;;;;;;;;;20.40;54.80;;;;;;5048259;28;19955;-73
2023/06/08 08:02:53;;;;;;;;;;;20.40;54.60;;;;;;5049804;28;19924;-72
2023/06/08 08:05:18;;;;;;;;;;;20.40;54.50;;;;;;5048195;28;20053;-70
2023/06/08 08:07:44;;;;;;;;;;;20.50;54.60;;;;;;5052849;28;20010;-67
2023/06/08 08:10:10;;;;;;;;;;;20.40;54.70;;;;;;5064433;28;19928;-73
2023/06/08 08:12:35;;;;;;;;;;;20.40;55.00;;;;;;5053215;28;20410;-67
2023/06/08 08:15:01;;;;;;;;;;;20.50;55.30;;;;;;5048557;28;19978;-67
2023/06/08 08:17:26;;;;;;;;;;;20.50;55.40;;;;;;5051434;28;20195;-69
2023/06/08 08:19:52;;;;;;;;;;;20.50;55.60;;;;;;5050081;28;19923;-69
2023/06/08 08:22:17;;;;;;;;;;;20.50;55.60;;;;;;5049684;28;19928;-68
2023/06/08 08:24:42;;;;;;;;;;;20.60;55.70;;;;;;5049376;28;20248;-66
2023/06/08 08:27:10;;;;;;;;;;;20.60;55.60;;;;;;5047838;28;19924;-66
2023/06/08 08:29:35;;;;;;;;;;;20.60;55.60;;;;;;5051774;28;20020;-66
2023/06/08 08:32:00;;;;;;;;;;;20.70;55.50;;;;;;5046050;28;19928;-69
2023/06/08 08:34:26;;;;;;;;;;;20.70;55.60;;;;;;5046975;28;20089;-75
2023/06/08 08:36:52;;;;;;;;;;;20.70;55.50;;;;;;5048723;28;20009;-70
2023/06/08 08:39:17;;;;;;;;;;;20.80;55.30;;;;;;5046561;28;20419;-70
2023/06/08 08:41:45;;;;;;;;;;;20.80;55.10;;;;;;5047928;28;20065;-71
2023/06/08 08:44:14;;;;;;;;;;;20.80;55.10;;;;;;5047960;28;19928;-76
2023/06/08 08:46:42;;;;;;;;;;;20.90;55.20;;;;;;5067001;28;20012;-72
2023/06/08 08:49:13;;;;;;;;;;;20.90;55.10;;;;;;5046887;28;20407;-71
2023/06/08 08:51:39;;;;;;;;;;;20.90;55.40;;;;;;5047991;28;20019;-73
2023/06/08 08:54:05;;;;;;;;;;;20.90;55.30;;;;;;5045441;28;20331;-70
2023/06/08 08:56:35;;;;;;;;;;;20.90;55.40;;;;;;5043552;28;19986;-70
2023/06/08 08:59:02;;;;;;;;;;;20.90;55.60;;;;;;5061076;28;20503;-76
2023/06/08 09:01:28;;;;;;;;;;;20.90;55.50;;;;;;5045059;28;19929;-75
2023/06/08 09:03:53;;;;;;;;;;;21.00;55.40;;;;;;5044089;28;19970;-74
2023/06/08 09:06:19;;;;;;;;;;;20.90;55.20;;;;;;5044799;28;19927;-74
2023/06/08 09:08:47;;;;;;;;;;;20.90;55.10;;;;;;5042794;28;19928;-70
2023/06/08 09:11:12;;;;;;;;;;;20.90;55.00;;;;;;5038414;28;19929;-68
2023/06/08 09:13:38;;;;;;;;;;;21.00;55.30;;;;;;5027234;28;21726;-65
2023/06/08 09:16:14;;;;;;;;;;;20.90;55.20;;;;;;5027470;28;20050;-69
2023/06/08 09:18:41;;;;;;;;;;;21.00;55.20;;;;;;5030862;28;19925;-69
2023/06/08 09:21:26;;;;;;;;;;;21.00;55.20;;;;;;5029608;28;20506;-73
2023/06/08 09:24:12;;;;;;;;;;;21.00;55.30;;;;;;5029506;28;19947;-71
2023/06/08 09:26:42;;;;;;;;;;;21.00;55.30;;;;;;5038867;28;19933;-72
2023/06/08 09:29:08;;;;;;;;;;;21.00;55.40;;;;;;5030430;28;20021;-68
2023/06/08 09:31:34;;;;;;;;;;;21.00;55.30;;;;;;5032822;28;19928;-67
2023/06/08 09:34:07;;;;;;;;;;;21.00;55.30;;;;;;5036242;28;19925;-74
2023/06/08 09:36:37;;;;;;;;;;;21.10;55.40;;;;;;5038308;28;20012;-68
2023/06/08 09:39:04;;;;;;;;;;;21.10;55.50;;;;;;5038002;28;20031;-69
2023/06/08 09:41:29;;;;;;;;;;;21.10;55.60;;;;;;5050879;28;19925;-72
2023/06/08 09:43:55;;;;;;;;;;;21.10;55.50;;;;;;5034668;28;19935;-74
2023/06/08 09:46:38;;;;;;;;;;;21.10;55.50;;;;;;5038443;28;20470;-74
2023/06/08 09:49:08;;;;;;;;;;;21.10;55.50;;;;;;5052180;28;20074;-73
2023/06/08 09:51:36;;;;;;;;;;;21.20;55.60;;;;;;5036975;28;19929;-73
2023/06/08 09:54:02;;;;;;;;;;;21.30;55.70;;;;;;5040046;28;20288;-69
2023/06/08 09:56:28;;;;;;;;;;;21.30;55.70;;;;;;5034633;28;19994;-75
2023/06/08 09:58:56;;;;;;;;;;;21.30;55.60;;;;;;5039554;28;19964;-67
2023/06/08 10:01:27;;;;;;;;;;;21.40;55.70;;;;;;5049417;28;19931;-69
2023/06/08 10:03:57;;;;;;;;;;;21.30;55.70;;;;;;5036847;28;19932;-69
2023/06/08 10:06:23;;;;;;;;;;;21.30;55.70;;;;;;5037416;28;20411;-69
2023/06/08 10:08:51;;;;;;;;;;;21.30;55.70;;;;;;5049854;28;19925;-74
2023/06/08 10:11:17;;;;;;;;;;;21.40;55.70;;;;;;5048676;28;20127;-71
2023/06/08 10:13:43;;;;;;;;;;;21.40;55.70;;;;;;5072253;28;20401;-71
2023/06/08 10:16:09;;;;;;;;;;;21.40;55.60;;;;;;5052339;28;19976;-72
2023/06/08 10:18:35;;;;;;;;;;;21.40;55.50;;;;;;5070663;28;19973;-75
2023/06/08 10:21:02;;;;;;;;;;;21.40;55.50;;;;;;5042566;28;20044;-75
2023/06/08 10:23:28;;;;;;;;;;;21.40;55.50;;;;;;5054558;28;19954;-76
2023/06/08 10:25:55;;;;;;;;;;;21.40;55.50;;;;;;5067910;28;19929;-76
2023/06/08 10:28:21;;;;;;;;;;;21.40;55.50;;;;;;5057592;28;19959;-75
2023/06/08 10:30:46;;;;;;;;;;;21.40;55.40;;;;;;5071787;28;20393;-76
2023/06/08 10:33:15;;;;;;;;;;;21.40;55.30;;;;;;5054701;28;19971;-75
2023/06/08 10:35:41;;;;;;;;;;;21.50;55.30;;;;;;5073103;28;19931;-74
2023/06/08 10:38:07;;;;;;;;;;;21.50;55.20;;;;;;5071839;28;19981;-75
2023/06/08 10:40:40;;;;;;;;;;;21.50;55.10;;;;;;5068271;28;19926;-76
2023/06/08 10:43:07;;;;;;;;;;;21.50;55.10;;;;;;5054390;28;19924;-72
2023/06/08 10:45:35;;;;;;;;;;;21.50;55.20;;;;;;5052264;28;20252;-72
2023/06/08 10:48:03;;;;;;;;;;;21.50;55.30;;;;;;5073066;28;19931;-71
2023/06/08 10:50:30;;;;;;;;;;;21.60;55.70;;;;;;5055851;28;19924;-71
2023/06/08 10:52:58;;;;;;;;;;;21.60;55.80;;;;;;5053222;28;19928;-70
2023/06/08 10:55:25;;;;;;;;;;;21.60;56.10;;;;;;5071730;28;19924;-67
2023/06/08 10:57:52;;;;;;;;;;;21.70;56.50;;;;;;5071999;28;19963;-68
2023/06/08 11:05:43;;;;;;;;;;;21.80;56.70;;;;;;5083245;27;19920;-68
2023/06/08 11:08:10;;;;;;;;;;;21.90;56.60;;;;;;5072936;28;19925;-66
2023/06/08 11:10:39;;;;;;;;;;;21.90;56.50;;;;;;5089443;28;20051;-68
2023/06/08 11:13:06;;;;;;;;;;;21.90;56.20;;;;;;5072115;28;19986;-67
2023/06/08 11:15:34;;;;;;;;;;;21.90;56.30;;;;;;5055676;28;19980;-71
2023/06/08 11:18:00;;;;;;;;;;;21.90;56.20;;;;;;5088614;28;20015;-69
2023/06/08 11:20:26;;;;;;;;;;;22.00;56.40;;;;;;5089253;28;19970;-67
2023/06/08 11:22:51;;;;;;;;;;;22.00;56.20;;;;;;5075908;28;19940;-70
2023/06/08 11:25:19;;;;;;;;;;;22.00;56.20;;;;;;5053277;28;20025;-69
2023/06/08 11:27:44;;;;;;;;;;;22.00;56.20;;;;;;5067080;28;19925;-67
2023/06/08 11:30:17;;;;;;;;;;;22.10;56.10;;;;;;5044209;28;19925;-68
2023/06/08 11:32:45;;;;;;;;;;;22.10;56.20;;;;;;5054602;28;19924;-66
2023/06/08 11:35:11;;;;;;;;;;;22.10;56.30;;;;;;5051983;28;19929;-65
2023/06/08 11:37:36;;;;;;;;;;;22.10;56.20;;;;;;5051855;28;19931;-65
2023/06/08 11:40:08;;;;;;;;;;;22.10;56.50;;;;;;5056810;28;20034;-64
2023/06/08 11:42:35;;;;;;;;;;;22.10;56.40;;;;;;5071032;28;20613;-64
2023/06/08 11:45:03;;;;;;;;;;;22.10;56.50;;;;;;5067600;28;20055;-63
2023/06/08 11:47:29;;;;;;;;;;;22.10;56.50;;;;;;5086591;28;19932;-68
2023/06/08 11:49:57;;;;;;;;;;;22.10;56.60;;;;;;5053688;28;20680;-64
2023/06/08 11:52:24;;;;;;;;;;;22.10;56.90;;;;;;5044847;28;19925;-65
2023/06/08 11:54:52;;;;;;;;;;;22.10;57.10;;;;;;5051282;28;19924;-66
2023/06/08 11:57:17;;;;;;;;;;;22.20;57.10;;;;;;5066345;28;19935;-64
2023/06/08 11:59:45;;;;;;;;;;;22.30;57.10;;;;;;5052768;28;19932;-68
2023/06/08 12:02:10;;;;;;;;;;;22.30;57.20;;;;;;5068198;28;19924;-70
2023/06/08 12:04:36;;;;;;;;;;;22.40;57.10;;;;;;5057216;28;20406;-75
2023/06/08 12:07:10;;;;;;;;;;;22.30;57.10;;;;;;5089193;28;19925;-74
2023/06/08 12:09:36;;;;;;;;;;;22.30;57.20;;;;;;5088952;28;19936;-66
2023/06/08 12:12:08;;;;;;;;;;;22.30;57.30;;;;;;5088715;28;19925;-66
2023/06/08 12:14:35;;;;;;;;;;;22.40;57.20;;;;;;5058145;28;19925;-71
2023/06/08 12:17:02;;;;;;;;;;;22.40;57.10;;;;;;5074608;28;19931;-70
2023/06/08 12:19:29;;;;;;;;;;;22.40;57.30;;;;;;5075492;28;20517;-67
2023/06/08 12:21:54;;;;;;;;;;;22.40;57.60;;;;;;5048049;28;20397;-69
2023/06/08 12:24:20;;;;;;;;;;;22.40;57.60;;;;;;5038802;28;20007;-65
2023/06/08 12:26:45;;;;;;;;;;;22.40;57.60;;;;;;5044070;28;20036;-67
2023/06/08 12:29:11;;;;;;;;;;;22.40;57.70;;;;;;5073005;28;20009;-70
2023/06/08 12:31:36;;;;;;;;;;;22.40;57.70;;;;;;5040326;28;20549;-70
2023/06/08 12:34:02;;;;;;;;;;;22.40;57.60;;;;;;5060736;28;19980;-70
2023/06/08 12:36:28;;;;;;;;;;;22.50;58.20;;;;;;5042713;28;19924;-70
2023/06/08 12:38:56;;;;;;;;;;;22.40;58.10;;;;;;5043693;28;19928;-72
2023/06/08 12:41:23;;;;;;;;;;;22.50;58.30;;;;;;5076578;28;20078;-71
2023/06/08 12:43:48;;;;;;;;;;;22.40;58.50;;;;;;5076860;28;19951;-73
2023/06/08 12:46:18;;;;;;;;;;;22.50;58.80;;;;;;5040714;28;20364;-69
2023/06/08 12:48:44;;;;;;;;;;;22.50;58.70;;;;;;5040031;28;20503;-73
2023/06/08 12:51:10;;;;;;;;;;;22.40;58.80;;;;;;5044341;28;20374;-75
2023/06/08 12:53:35;;;;;;;;;;;22.50;59.60;;;;;;5039916;28;19925;-70
2023/06/08 12:56:01;;;;;;;;;;;22.40;59.00;;;;;;5041036;28;19925;-71
2023/06/08 12:58:26;;;;;;;;;;;22.50;58.90;;;;;;5036617;28;19925;-76
2023/06/08 13:00:52;;;;;;;;;;;22.50;58.80;;;;;;5040598;28;19968;-71
2023/06/08 13:03:17;;;;;;;;;;;22.50;58.50;;;;;;5034393;28;19925;-70
2023/06/08 13:05:43;;;;;;;;;;;22.50;58.10;;;;;;5068421;28;20441;-69
2023/06/08 13:08:09;;;;;;;;;;;22.50;57.80;;;;;;5069937;28;19928;-70
2023/06/08 13:10:37;;;;;;;;;;;22.50;57.40;;;;;;5045920;28;19929;-75
2023/06/08 13:13:02;;;;;;;;;;;22.60;57.00;;;;;;5052740;28;19931;-76
2023/06/08 13:15:28;;;;;;;;;;;22.60;56.70;;;;;;5042916;28;19921;-71
2023/06/08 13:17:54;;;;;;;;;;;22.70;56.60;;;;;;5041729;28;19924;-75
2023/06/08 13:20:20;;;;;;;;;;;22.70;56.40;;;;;;5056947;28;19921;-73
2023/06/08 13:22:46;;;;;;;;;;;22.70;56.30;;;;;;5064845;28;19981;-69
2023/06/08 13:25:11;;;;;;;;;;;22.70;56.50;;;;;;5037431;28;20011;-70
2023/06/08 13:27:37;;;;;;;;;;;22.70;56.60;;;;;;5034871;28;19936;-70
2023/06/08 13:30:02;;;;;;;;;;;22.80;56.60;;;;;;5040361;28;20423;-72
2023/06/08 13:32:28;;;;;;;;;;;22.80;56.30;;;;;;5039402;28;19928;-66
2023/06/08 13:34:55;;;;;;;;;;;22.80;56.20;;;;;;5042479;28;19921;-69
2023/06/08 13:37:21;;;;;;;;;;;22.80;56.10;;;;;;5042411;28;19920;-65
2023/06/08 13:39:46;;;;;;;;;;;22.80;56.10;;;;;;5078296;28;19921;-69
2023/06/08 13:42:12;;;;;;;;;;;22.90;56.50;;;;;;5045339;28;20055;-68
2023/06/08 13:44:40;;;;;;;;;;;22.90;56.50;;;;;;5043542;28;20581;-68
2023/06/08 13:47:06;;;;;;;;;;;22.90;56.40;;;;;;5061278;28;19925;-69
2023/06/08 13:49:32;;;;;;;;;;;22.90;56.40;;;;;;5044246;28;20715;-69
2023/06/08 13:51:57;;;;;;;;;;;23.00;56.40;;;;;;5041780;28;19928;-69
2023/06/08 13:54:23;;;;;;;;;;;23.00;56.10;;;;;;5041181;28;20010;-70
2023/06/08 13:56:48;;;;;;;;;;;23.00;55.60;;;;;;5042959;28;19925;-64
2023/06/08 13:59:15;;;;;;;;;;;23.00;56.50;;;;;;5046136;28;20039;-64
2023/06/08 14:01:40;;;;;;;;;;;23.00;55.80;;;;;;5043571;28;20019;-64
2023/06/08 14:04:06;;;;;;;;;;;23.10;56.20;;;;;;5059762;28;20015;-65
2023/06/08 14:06:31;;;;;;;;;;;23.10;56.20;;;;;;5043508;28;20005;-64
2023/06/08 14:08:58;;;;;;;;;;;23.20;56.20;;;;;;5042697;28;19939;-65
2023/06/08 14:11:24;;;;;;;;;;;23.20;56.10;;;;;;5060840;28;19931;-65
2023/06/08 14:13:49;;;;;;;;;;;23.20;55.90;;;;;;5043181;28;19920;-65
2023/06/08 14:16:15;;;;;;;;;;;23.20;55.80;;;;;;5057684;28;19929;-65
2023/06/08 14:18:41;;;;;;;;;;;23.20;55.90;;;;;;5059259;28;19956;-65
2023/06/08 14:21:07;;;;;;;;;;;23.20;56.00;;;;;;5045756;28;19928;-67